Time;durP1;ratioP1;P1;durP2;ratioP2;P2;SDS_P1;SDS_P2;PMS_P1;PMS_P2;Temp;Humidity;BMP_temperature;BMP_pressure;BME280_temperature;BME280_humidity;BME280_pressure;Samples;Min_cycle;Max_cycle;Signal;HPM_P1;HPM_P2
2023/03/07 00:02:00;;;;;;;11.30;3.22;;;;;;;;;;5035108;28;20057;-89
2023/03/07 00:04:28;;;;;;;4.22;3.83;;;;;;;;;;5034794;28;20046;-89
2023/03/07 00:06:55;;;;;;;5.38;4.82;;;;;;;;;;5034654;28;20491;-89
2023/03/07 00:09:22;;;;;;;3.78;3.50;;;;;;;;;;5034570;28;20581;-88
2023/03/07 00:11:49;;;;;;;2.78;2.25;;;;;;;;;;5034350;28;20049;-88
2023/03/07 00:14:16;;;;;;;3.47;2.10;;;;;;;;;;5034850;28;20041;-88
2023/03/07 00:16:42;;;;;;;5.43;5.15;;;;;;;;;;5034406;28;20049;-88
2023/03/07 00:19:09;;;;;;;2.97;2.85;;;;;;;;;;5034169;28;20057;-89
2023/03/07 00:21:37;;;;;;;8.00;3.83;;;;;;;;;;5034050;28;20099;-88
2023/03/07 00:24:04;;;;;;;3.72;3.53;;;;;;;;;;5039132;28;20049;-89
2023/03/07 00:26:31;;;;;;;3.25;2.97;;;;;;;;;;5054017;28;20128;-88
2023/03/07 00:28:57;;;;;;;3.38;3.15;;;;;;;;;;5050177;28;20056;-89
2023/03/07 00:31:24;;;;;;;3.47;3.22;;;;;;;;;;5033998;28;20126;-88
2023/03/07 00:33:50;;;;;;;2.72;2.53;;;;;;;;;;5034630;28;20100;-88
2023/03/07 00:36:17;;;;;;;4.05;1.27;;;;;;;;;;5033557;28;20041;-89
2023/03/07 00:38:45;;;;;;;2.03;1.92;;;;;;;;;;5034542;28;20450;-88
2023/03/07 00:41:13;;;;;;;3.08;2.85;;;;;;;;;;5034041;28;20050;-89
2023/03/07 00:43:39;;;;;;;3.92;3.63;;;;;;;;;;5034264;28;20057;-88
2023/03/07 00:46:06;;;;;;;3.50;3.30;;;;;;;;;;5034009;28;20095;-88
2023/03/07 00:48:33;;;;;;;3.45;3.17;;;;;;;;;;5033740;28;20095;-88
2023/03/07 00:51:00;;;;;;;3.17;2.97;;;;;;;;;;5053265;28;20059;-88
2023/03/07 00:53:27;;;;;;;2.75;2.50;;;;;;;;;;5053734;28;20493;-88
2023/03/07 00:55:56;;;;;;;3.03;2.75;;;;;;;;;;5035143;28;20100;-88
2023/03/07 00:58:22;;;;;;;3.97;3.58;;;;;;;;;;5033654;28;20096;-88
2023/03/07 01:00:49;;;;;;;3.70;3.42;;;;;;;;;;5033374;28;20096;-88
2023/03/07 01:03:15;;;;;;;6.75;6.45;;;;;;;;;;5033678;28;20053;-88
2023/03/07 01:05:42;;;;;;;4.28;3.95;;;;;;;;;;5049547;28;20049;-88
2023/03/07 01:08:08;;;;;;;4.22;3.83;;;;;;;;;;5053438;28;20049;-88
2023/03/07 01:10:35;;;;;;;4.28;4.05;;;;;;;;;;5038629;28;20119;-88
2023/03/07 01:13:03;;;;;;;4.70;4.40;;;;;;;;;;5033525;28;20053;-88
2023/03/07 01:15:29;;;;;;;5.07;4.68;;;;;;;;;;5033399;28;20057;-89
2023/03/07 01:17:56;;;;;;;4.00;3.78;;;;;;;;;;5033235;28;20123;-88
2023/03/07 01:20:22;;;;;;;3.08;2.88;;;;;;;;;;5033385;28;20053;-88
2023/03/07 01:22:49;;;;;;;3.35;3.13;;;;;;;;;;5033045;28;20103;-88
2023/03/07 01:25:15;;;;;;;3.92;3.63;;;;;;;;;;5033916;28;20131;-89
2023/03/07 01:27:42;;;;;;;6.28;5.90;;;;;;;;;;5033192;28;20490;-89
2023/03/07 01:30:10;;;;;;;3.50;3.30;;;;;;;;;;5033256;28;20053;-88
2023/03/07 01:32:37;;;;;;;5.25;2.50;;;;;;;;;;5033257;28;20107;-89
2023/03/07 01:35:04;;;;;;;3.63;3.33;;;;;;;;;;5042406;28;20060;-89
2023/03/07 01:37:30;;;;;;;3.47;3.22;;;;;;;;;;5053155;28;20102;-88
2023/03/07 01:39:57;;;;;;;5.07;4.03;;;;;;;;;;5052792;28;20498;-88
2023/03/07 01:42:23;;;;;;;4.85;4.55;;;;;;;;;;5052970;28;20122;-89
2023/03/07 01:45:04;;;;;;;2.83;2.60;;;;;;;;;;5046236;28;20072;-89
2023/03/07 01:47:32;;;;;;;5.43;4.40;;;;;;;;;;5033262;28;20042;-88
2023/03/07 01:49:59;;;;;;;6.70;3.88;;;;;;;;;;5040352;28;20191;-89
2023/03/07 01:52:29;;;;;;;6.40;4.18;;;;;;;;;;5052996;28;20180;-89
2023/03/07 01:54:58;;;;;;;3.38;3.05;;;;;;;;;;5052798;28;20457;-88
2023/03/07 01:57:27;;;;;;;1.90;1.80;;;;;;;;;;5052628;28;20461;-89
2023/03/07 01:59:56;;;;;;;4.63;4.38;;;;;;;;;;5046172;28;20056;-88
2023/03/07 02:02:23;;;;;;;4.25;4.03;;;;;;;;;;5032808;28;20092;-89
2023/03/07 02:04:53;;;;;;;5.95;5.50;;;;;;;;;;5038633;28;20076;-89
2023/03/07 02:07:21;;;;;;;4.72;4.43;;;;;;;;;;5052364;28;20049;-88
2023/03/07 02:09:48;;;;;;;3.63;3.42;;;;;;;;;;5047178;28;20560;-88
2023/03/07 02:12:15;;;;;;;3.80;3.60;;;;;;;;;;5032571;28;20053;-89
2023/03/07 02:14:43;;;;;;;4.80;4.50;;;;;;;;;;5032367;28;20045;-88
2023/03/07 02:17:09;;;;;;;3.30;3.10;;;;;;;;;;5031947;28;20061;-88
2023/03/07 02:19:52;;;;;;;2.60;2.40;;;;;;;;;;5035292;28;20045;-88
2023/03/07 02:22:19;;;;;;;5.43;5.15;;;;;;;;;;5052318;28;20131;-88
2023/03/07 02:24:51;;;;;;;2.60;2.40;;;;;;;;;;5052131;28;20045;-88
2023/03/07 02:27:17;;;;;;;;;;;;;;;;;;5052932;28;20049;-88
2023/03/07 02:29:45;;;;;;;3.65;3.35;;;;;;;;;;5048569;28;19921;-88
2023/03/07 02:32:11;;;;;;;4.05;3.85;;;;;;;;;;5031977;28;20457;-88
2023/03/07 02:34:38;;;;;;;5.95;5.57;;;;;;;;;;5034836;28;20127;-88
2023/03/07 02:37:06;;;;;;;3.42;3.22;;;;;;;;;;5051985;28;20053;-88
2023/03/07 02:39:32;;;;;;;4.85;4.65;;;;;;;;;;5052012;28;20171;-88
2023/03/07 02:42:01;;;;;;;2.13;2.03;;;;;;;;;;5052117;28;20126;-88
2023/03/07 02:44:27;;;;;;;5.03;3.90;;;;;;;;;;5051497;28;20094;-88
2023/03/07 02:46:55;;;;;;;3.35;3.15;;;;;;;;;;5032389;28;20119;-88
2023/03/07 02:49:21;;;;;;;4.40;3.42;;;;;;;;;;5032264;28;20049;-88
2023/03/07 02:51:48;;;;;;;4.35;3.10;;;;;;;;;;5031844;28;20049;-88
2023/03/07 02:54:14;;;;;;;3.33;3.10;;;;;;;;;;5031968;28;20507;-88
2023/03/07 02:56:41;;;;;;;3.10;2.92;;;;;;;;;;5032218;28;20045;-89
2023/03/07 02:59:07;;;;;;;5.25;4.93;;;;;;;;;;5033344;28;20049;-88
2023/03/07 03:01:34;;;;;;;3.70;3.47;;;;;;;;;;5052850;28;20461;-89
2023/03/07 03:04:02;;;;;;;5.53;5.13;;;;;;;;;;5055861;28;20114;-89
2023/03/07 03:06:28;;;;;;;4.20;3.90;;;;;;;;;;5039719;28;20054;-88
2023/03/07 03:08:55;;;;;;;1.92;1.83;;;;;;;;;;5036088;28;20045;-88
2023/03/07 03:11:21;;;;;;;4.90;4.50;;;;;;;;;;5036108;28;20104;-88
2023/03/07 03:13:48;;;;;;;3.70;3.42;;;;;;;;;;5035644;28;20053;-88
2023/03/07 03:16:16;;;;;;;3.30;3.10;;;;;;;;;;5035617;28;20103;-88
2023/03/07 03:18:42;;;;;;;2.78;2.50;;;;;;;;;;5035571;28;20049;-88
2023/03/07 03:21:10;;;;;;;2.58;2.47;;;;;;;;;;5035492;28;20107;-88
2023/03/07 03:23:37;;;;;;;2.97;2.78;;;;;;;;;;5035708;28;20103;-88
2023/03/07 03:26:06;;;;;;;3.55;3.38;;;;;;;;;;5046726;28;20057;-89
2023/03/07 03:28:33;;;;;;;3.42;3.20;;;;;;;;;;5055305;28;20059;-89
2023/03/07 03:31:00;;;;;;;3.95;3.40;;;;;;;;;;5054769;28;20057;-88
2023/03/07 03:33:27;;;;;;;2.95;2.75;;;;;;;;;;5055337;28;20106;-88
2023/03/07 03:35:53;;;;;;;6.25;3.38;;;;;;;;;;5054981;28;20060;-88
2023/03/07 03:38:21;;;;;;;3.10;3.00;;;;;;;;;;5055017;28;20045;-88
2023/03/07 03:40:47;;;;;;;3.58;3.35;;;;;;;;;;5046354;28;20103;-88
2023/03/07 03:43:14;;;;;;;3.58;3.38;;;;;;;;;;5035279;28;20049;-88
2023/03/07 03:45:41;;;;;;;3.63;2.25;;;;;;;;;;5042081;28;20048;-88
2023/03/07 03:48:08;;;;;;;4.57;4.28;;;;;;;;;;5055067;28;20091;-89
2023/03/07 03:50:34;;;;;;;3.28;2.97;;;;;;;;;;5054999;28;20045;-88
2023/03/07 03:53:01;;;;;;;3.55;3.25;;;;;;;;;;5054967;28;20057;-88
2023/03/07 03:55:29;;;;;;;4.13;3.92;;;;;;;;;;5054674;28;20506;-89
2023/03/07 03:57:55;;;;;;;2.17;2.08;;;;;;;;;;5054632;28;20049;-88
2023/03/07 04:00:22;;;;;;;2.95;2.60;;;;;;;;;;5050931;28;20092;-88
2023/03/07 04:02:49;;;;;;;3.17;2.97;;;;;;;;;;5035124;28;20407;-88
2023/03/07 04:05:15;;;;;;;2.97;2.78;;;;;;;;;;5034743;28;20073;-88
2023/03/07 04:07:42;;;;;;;4.50;4.10;;;;;;;;;;5034551;28;20049;-88
2023/03/07 04:10:09;;;;;;;3.60;3.40;;;;;;;;;;5033443;28;20515;-88
2023/03/07 04:12:37;;;;;;;2.45;1.90;;;;;;;;;;5034631;28;20053;-88
2023/03/07 04:15:03;;;;;;;3.25;3.05;;;;;;;;;;5034698;28;20045;-89
2023/03/07 04:17:30;;;;;;;3.05;2.85;;;;;;;;;;5034461;28;20624;-89
2023/03/07 04:19:56;;;;;;;3.78;3.47;;;;;;;;;;5034447;28;20495;-88
2023/03/07 04:22:23;;;;;;;3.80;3.50;;;;;;;;;;5054041;28;20052;-89
2023/03/07 04:24:49;;;;;;;2.17;2.05;;;;;;;;;;5054417;28;20079;-88
2023/03/07 04:27:16;;;;;;;2.13;2.03;;;;;;;;;;5054592;28;20053;-89
2023/03/07 04:29:44;;;;;;;2.50;2.40;;;;;;;;;;5054155;28;20132;-88
2023/03/07 04:32:10;;;;;;;2.20;2.10;;;;;;;;;;5054186;28;20122;-88
2023/03/07 04:34:37;;;;;;;4.22;3.92;;;;;;;;;;5054446;28;20049;-88
2023/03/07 04:37:03;;;;;;;1.83;1.73;;;;;;;;;;5054006;28;20563;-89
2023/03/07 04:39:30;;;;;;;2.60;2.47;;;;;;;;;;5054370;28;20072;-89
2023/03/07 04:41:56;;;;;;;2.58;2.38;;;;;;;;;;5054207;28;20083;-88
2023/03/07 04:44:23;;;;;;;4.15;3.92;;;;;;;;;;5053882;28;20406;-88
2023/03/07 04:46:51;;;;;;;5.35;4.85;;;;;;;;;;5053857;28;20099;-88
2023/03/07 04:49:17;;;;;;;1.60;1.50;;;;;;;;;;5053755;28;20099;-88
2023/03/07 04:51:44;;;;;;;2.72;2.60;;;;;;;;;;5053582;28;20041;-88
2023/03/07 04:54:10;;;;;;;2.45;2.25;;;;;;;;;;5053754;28;20114;-88
2023/03/07 04:56:36;;;;;;;2.70;2.22;;;;;;;;;;5042459;28;20046;-88
2023/03/07 04:59:03;;;;;;;2.38;2.28;;;;;;;;;;5033678;28;20108;-88
2023/03/07 05:01:29;;;;;;;2.88;2.70;;;;;;;;;;5033617;28;20045;-88
2023/03/07 05:03:57;;;;;;;3.78;3.47;;;;;;;;;;5033622;28;20127;-88
2023/03/07 05:06:24;;;;;;;3.53;3.22;;;;;;;;;;5033608;28;20433;-87
2023/03/07 05:08:50;;;;;;;3.70;2.90;;;;;;;;;;5033937;28;20099;-88
2023/03/07 05:11:17;;;;;;;5.68;4.13;;;;;;;;;;5033622;28;20057;-88
2023/03/07 05:13:43;;;;;;;2.78;2.58;;;;;;;;;;5033303;28;20050;-88
2023/03/07 05:16:10;;;;;;;2.60;2.45;;;;;;;;;;5033652;28;20050;-88
2023/03/07 05:18:36;;;;;;;3.90;3.33;;;;;;;;;;5033505;28;20041;-88
2023/03/07 05:21:04;;;;;;;2.95;2.75;;;;;;;;;;5038111;28;20494;-88
2023/03/07 05:23:31;;;;;;;3.22;2.00;;;;;;;;;;5053062;28;20045;-88
2023/03/07 05:25:57;;;;;;;3.90;3.70;;;;;;;;;;5053218;28;20107;-88
2023/03/07 05:28:23;;;;;;;3.33;2.22;;;;;;;;;;5053449;28;20486;-89
2023/03/07 05:30:50;;;;;;;2.15;2.00;;;;;;;;;;5050592;28;20099;-88
2023/03/07 05:33:16;;;;;;;2.95;2.85;;;;;;;;;;5033570;28;20399;-88
2023/03/07 05:35:43;;;;;;;3.60;3.40;;;;;;;;;;5033243;28;20049;-88
2023/03/07 05:38:11;;;;;;;5.80;5.30;;;;;;;;;;5032942;28;20046;-88
2023/03/07 05:40:39;;;;;;;4.00;3.53;;;;;;;;;;5033775;28;20104;-88
2023/03/07 05:43:05;;;;;;;2.50;2.30;;;;;;;;;;5053073;28;20052;-88
2023/03/07 05:45:32;;;;;;;2.53;2.40;;;;;;;;;;5052672;28;20491;-88
2023/03/07 05:47:58;;;;;;;3.00;2.90;;;;;;;;;;5033539;28;20119;-88
2023/03/07 05:50:25;;;;;;;4.15;3.85;;;;;;;;;;5033405;28;20046;-88
2023/03/07 05:52:52;;;;;;;3.30;3.00;;;;;;;;;;5032548;28;20457;-89
2023/03/07 05:55:20;;;;;;;3.90;3.70;;;;;;;;;;5032990;28;20045;-88
2023/03/07 05:57:46;;;;;;;3.05;2.85;;;;;;;;;;5050282;28;20049;-88
2023/03/07 06:00:14;;;;;;;3.80;3.50;;;;;;;;;;5052435;28;20053;-88
2023/03/07 06:02:41;;;;;;;9.23;3.45;;;;;;;;;;5036382;28;20123;-88
2023/03/07 06:05:08;;;;;;;2.85;2.65;;;;;;;;;;5032946;28;20068;-88
2023/03/07 06:07:34;;;;;;;4.53;4.15;;;;;;;;;;5033992;28;20053;-88
2023/03/07 06:10:01;;;;;;;3.75;3.45;;;;;;;;;;5030938;28;20099;-88
2023/03/07 06:12:29;;;;;;;3.60;3.38;;;;;;;;;;5045952;28;20132;-88
2023/03/07 06:14:55;;;;;;;4.85;4.45;;;;;;;;;;5052475;28;20045;-88
2023/03/07 06:17:22;;;;;;;4.25;3.95;;;;;;;;;;5051961;28;20049;-88
2023/03/07 06:19:48;;;;;;;3.78;3.08;;;;;;;;;;5052489;28;20453;-88
2023/03/07 06:22:15;;;;;;;3.42;3.22;;;;;;;;;;5052403;28;20045;-88
2023/03/07 06:24:41;;;;;;;4.53;4.22;;;;;;;;;;5052057;28;20072;-88
2023/03/07 06:27:08;;;;;;;4.05;3.75;;;;;;;;;;5052027;28;20052;-88
2023/03/07 06:29:36;;;;;;;4.43;4.10;;;;;;;;;;5050764;28;20473;-88
2023/03/07 06:32:03;;;;;;;4.55;4.25;;;;;;;;;;5051685;28;20064;-89
2023/03/07 06:34:29;;;;;;;5.00;4.65;;;;;;;;;;5053965;28;20061;-89
2023/03/07 06:36:56;;;;;;;5.38;5.07;;;;;;;;;;5055330;28;20575;-89
2023/03/07 06:39:22;;;;;;;5.43;4.60;;;;;;;;;;5055933;28;20102;-88
2023/03/07 06:41:49;;;;;;;4.38;3.90;;;;;;;;;;5049029;28;20095;-88
2023/03/07 06:44:16;;;;;;;4.18;3.83;;;;;;;;;;5035956;28;20100;-89
2023/03/07 06:46:44;;;;;;;4.60;4.13;;;;;;;;;;5041471;28;20057;-89
2023/03/07 06:49:11;;;;;;;3.75;3.53;;;;;;;;;;5055701;28;20057;-88
2023/03/07 06:51:37;;;;;;;4.97;4.57;;;;;;;;;;5050518;28;20103;-88
2023/03/07 06:54:04;;;;;;;5.28;5.00;;;;;;;;;;5035793;28;20092;-89
2023/03/07 06:56:30;;;;;;;3.00;2.78;;;;;;;;;;5039647;28;20098;-89
2023/03/07 06:58:57;;;;;;;3.70;3.47;;;;;;;;;;5055740;28;20049;-89
2023/03/07 07:01:23;;;;;;;4.68;4.38;;;;;;;;;;5055294;28;20072;-89
2023/03/07 07:03:51;;;;;;;3.75;3.45;;;;;;;;;;5055949;28;20445;-88
2023/03/07 07:06:18;;;;;;;5.30;4.68;;;;;;;;;;5055296;28;20111;-90
2023/03/07 07:08:44;;;;;;;3.42;3.22;;;;;;;;;;5055647;28;20052;-89
2023/03/07 07:11:11;;;;;;;5.35;5.05;;;;;;;;;;5053825;28;20049;-89
2023/03/07 07:13:37;;;;;;;6.18;4.95;;;;;;;;;;5036122;28;20099;-89
2023/03/07 07:16:04;;;;;;;4.95;4.60;;;;;;;;;;5036012;28;20100;-89
2023/03/07 07:18:31;;;;;;;4.68;4.40;;;;;;;;;;5035845;28;20077;-89
2023/03/07 07:20:59;;;;;;;5.78;5.43;;;;;;;;;;5035894;28;20088;-89
2023/03/07 07:23:25;;;;;;;5.68;5.28;;;;;;;;;;5035490;28;20393;-90
2023/03/07 07:25:52;;;;;;;5.25;4.88;;;;;;;;;;5037554;28;20084;-91
2023/03/07 07:28:19;;;;;;;7.53;6.95;;;;;;;;;;5052552;28;20049;-90
2023/03/07 07:30:45;;;;;;;5.75;4.25;;;;;;;;;;5045371;28;20103;-90
2023/03/07 07:33:12;;;;;;;6.55;6.18;;;;;;;;;;5049811;28;20057;-90
2023/03/07 07:35:38;;;;;;;5.13;4.63;;;;;;;;;;5040088;28;20050;-90
2023/03/07 07:38:06;;;;;;;4.75;4.45;;;;;;;;;;5035698;28;20052;-90
2023/03/07 07:40:33;;;;;;;6.53;6.10;;;;;;;;;;5035563;28;20049;-91
2023/03/07 07:42:59;;;;;;;5.03;4.70;;;;;;;;;;5048764;28;20053;-90
2023/03/07 07:45:26;;;;;;;5.72;5.32;;;;;;;;;;5055354;28;20103;-90
2023/03/07 07:47:52;;;;;;;4.75;4.47;;;;;;;;;;5043465;28;20095;-91
2023/03/07 07:50:19;;;;;;;4.82;4.60;;;;;;;;;;5034898;28;20545;-90
2023/03/07 07:52:46;;;;;;;5.95;5.55;;;;;;;;;;5045781;28;20098;-90
2023/03/07 07:55:14;;;;;;;6.78;6.47;;;;;;;;;;5055021;28;20041;-91
2023/03/07 07:57:41;;;;;;;5.85;5.55;;;;;;;;;;5054905;28;20052;-90
2023/03/07 08:00:08;;;;;;;7.60;7.03;;;;;;;;;;5054820;28;20045;-90
2023/03/07 08:02:35;;;;;;;4.85;4.63;;;;;;;;;;5046697;28;20099;-89
2023/03/07 08:05:02;;;;;;;5.13;4.85;;;;;;;;;;5035189;28;20053;-91
2023/03/07 08:07:30;;;;;;;5.63;5.30;;;;;;;;;;5034759;28;20126;-90
2023/03/07 08:09:56;;;;;;;3.85;3.55;;;;;;;;;;5035859;28;20380;-90
2023/03/07 08:12:24;;;;;;;5.60;5.28;;;;;;;;;;5034658;28;20115;-91
2023/03/07 08:14:51;;;;;;;4.07;3.88;;;;;;;;;;5037106;28;20565;-92
2023/03/07 08:17:17;;;;;;;4.70;4.47;;;;;;;;;;5040295;28;20041;-91
2023/03/07 08:19:44;;;;;;;5.15;4.90;;;;;;;;;;5054723;28;20051;-92
2023/03/07 08:22:10;;;;;;;2.83;2.70;;;;;;;;;;5054466;28;20098;-91
2023/03/07 08:24:37;;;;;;;3.97;3.58;;;;;;;;;;5055037;28;20049;-91
2023/03/07 08:27:03;;;;;;;5.53;5.25;;;;;;;;;;5051667;28;20046;-90
2023/03/07 08:29:31;;;;;;;3.83;3.63;;;;;;;;;;5034754;28;20084;-91
2023/03/07 08:31:58;;;;;;;7.10;6.70;;;;;;;;;;5037227;28;20140;-91
2023/03/07 08:34:24;;;;;;;3.65;3.35;;;;;;;;;;5054608;28;20049;-91
2023/03/07 08:36:51;;;;;;;5.53;5.30;;;;;;;;;;5054609;28;20107;-92
2023/03/07 08:39:18;;;;;;;3.97;3.75;;;;;;;;;;5054896;28;20107;-91
2023/03/07 08:41:45;;;;;;;5.90;5.47;;;;;;;;;;5054359;28;20560;-91
2023/03/07 08:44:11;;;;;;;5.85;5.55;;;;;;;;;;5054488;28;20053;-91
2023/03/07 08:46:39;;;;;;;4.72;4.45;;;;;;;;;;5054485;28;20098;-91
2023/03/07 08:49:05;;;;;;;4.53;4.30;;;;;;;;;;5035545;28;20053;-90
2023/03/07 08:51:32;;;;;;;5.15;4.85;;;;;;;;;;5034237;28;20103;-90
2023/03/07 08:53:58;;;;;;;3.80;3.60;;;;;;;;;;5051616;28;20107;-91
2023/03/07 08:56:26;;;;;;;4.10;3.88;;;;;;;;;;5053499;28;20516;-90
2023/03/07 08:58:53;;;;;;;5.07;4.85;;;;;;;;;;5053750;28;20135;-92
2023/03/07 09:01:19;;;;;;;7.25;6.75;;;;;;;;;;5054291;28;20055;-91
2023/03/07 09:03:47;;;;;;;3.97;3.78;;;;;;;;;;5053695;28;20045;-91
2023/03/07 09:06:15;;;;;;;6.40;6.10;;;;;;;;;;5053943;28;20049;-90
2023/03/07 09:08:41;;;;;;;5.20;4.97;;;;;;;;;;5054005;28;20052;-91
2023/03/07 09:11:08;;;;;;;5.40;5.00;;;;;;;;;;5054117;28;20045;-91
2023/03/07 09:13:34;;;;;;;6.93;6.60;;;;;;;;;;5053884;28;20049;-93
2023/03/07 09:16:03;;;;;;;3.05;2.85;;;;;;;;;;5053477;28;20391;-91
2023/03/07 09:18:30;;;;;;;4.43;4.20;;;;;;;;;;5053761;28;20053;-91
2023/03/07 09:21:00;;;;;;;5.47;5.18;;;;;;;;;;5053226;28;20402;-90
2023/03/07 09:23:26;;;;;;;5.97;5.68;;;;;;;;;;5053907;28;20048;-92
2023/03/07 09:25:53;;;;;;;6.38;6.07;;;;;;;;;;5053753;28;20040;-94
2023/03/07 09:28:19;;;;;;;5.72;5.43;;;;;;;;;;5054028;28;20053;-94
2023/03/07 09:30:46;;;;;;;6.28;5.97;;;;;;;;;;5053701;28;20048;-94
2023/03/07 09:33:12;;;;;;;6.18;5.88;;;;;;;;;;5053955;28;20095;-93
2023/03/07 09:35:39;;;;;;;7.95;7.55;;;;;;;;;;5054228;28;20094;-95
2023/03/07 09:38:07;;;;;;;8.82;8.43;;;;;;;;;;5054295;28;20049;-94
2023/03/07 09:40:34;;;;;;;7.20;6.90;;;;;;;;;;5020981;28;20561;-96
2023/03/07 09:43:04;;;;;;;4.03;3.83;;;;;;;;;;5033911;28;20469;-96
2023/03/07 09:58:27;;;;;;;4.93;4.63;;;;;;;;;;4874865;29;20056;-96
2023/03/07 10:00:56;;;;;;;7.13;6.75;;;;;;;;;;4873219;29;20057;-95
2023/03/07 10:03:30;;;;;;;5.70;5.40;;;;;;;;;;4878125;29;20583;-93
2023/03/07 10:05:57;;;;;;;4.88;4.63;;;;;;;;;;4878628;29;20052;-94
2023/03/07 10:08:26;;;;;;;6.22;5.93;;;;;;;;;;4879234;29;20053;-94
2023/03/07 10:10:59;;;;;;;5.85;5.60;;;;;;;;;;4878293;29;20097;-95
2023/03/07 10:13:31;;;;;;;6.60;6.20;;;;;;;;;;4877997;29;20053;-93
2023/03/07 10:15:59;;;;;;;5.18;4.97;;;;;;;;;;4877860;29;20053;-93
2023/03/07 10:18:41;;;;;;;6.55;6.25;;;;;;;;;;4877430;29;20136;-94
2023/03/07 10:21:12;;;;;;;5.63;5.40;;;;;;;;;;4876313;29;20063;-93
2023/03/07 10:23:56;;;;;;;4.53;4.32;;;;;;;;;;4877186;29;20085;-94
2023/03/07 10:26:28;;;;;;;6.03;5.57;;;;;;;;;;4907393;29;20467;-93
2023/03/07 10:28:57;;;;;;;6.80;6.40;;;;;;;;;;4943759;29;20065;-95
2023/03/07 10:31:25;;;;;;;6.10;5.70;;;;;;;;;;4985089;28;20049;-94
2023/03/07 10:33:53;;;;;;;4.68;4.47;;;;;;;;;;5033223;28;20618;-94
2023/03/07 10:36:21;;;;;;;6.80;6.43;;;;;;;;;;5032973;28;20124;-95
2023/03/07 10:38:55;;;;;;;4.15;3.95;;;;;;;;;;5047630;28;20049;-93
2023/03/07 10:41:22;;;;;;;5.60;5.38;;;;;;;;;;5053675;28;20560;-93
2023/03/07 10:43:51;;;;;;;8.68;8.38;;;;;;;;;;5054086;28;20045;-93
2023/03/07 10:46:18;;;;;;;5.20;4.97;;;;;;;;;;5053533;28;20124;-93
2023/03/07 10:48:47;;;;;;;4.05;3.85;;;;;;;;;;5052721;28;20418;-93
2023/03/07 10:51:20;;;;;;;4.90;4.70;;;;;;;;;;5052899;28;20457;-93
2023/03/07 10:53:47;;;;;;;9.80;7.25;;;;;;;;;;5052832;28;20057;-93
2023/03/07 10:56:14;;;;;;;3.60;3.40;;;;;;;;;;5052923;28;20053;-92
2023/03/07 10:58:58;;;;;;;4.43;4.22;;;;;;;;;;5052549;28;20461;-93
2023/03/07 11:01:27;;;;;;;7.10;6.70;;;;;;;;;;5052834;28;20131;-93
2023/03/07 11:03:55;;;;;;;5.30;5.10;;;;;;;;;;5052938;28;20041;-92
2023/03/07 11:06:30;;;;;;;5.18;4.78;;;;;;;;;;5052677;28;20045;-93
2023/03/07 11:08:57;;;;;;;6.05;5.82;;;;;;;;;;5052730;28;20123;-93
2023/03/07 11:11:26;;;;;;;5.95;5.72;;;;;;;;;;5052742;28;20041;-93
2023/03/07 11:14:04;;;;;;;5.25;5.03;;;;;;;;;;5053001;28;20114;-93
2023/03/07 11:16:32;;;;;;;8.60;8.27;;;;;;;;;;5052774;28;20459;-91
2023/03/07 11:18:58;;;;;;;7.43;7.13;;;;;;;;;;5052557;28;20087;-92
2023/03/07 11:21:30;;;;;;;6.35;6.03;;;;;;;;;;5055723;28;20056;-93
2023/03/07 11:24:00;;;;;;;4.30;4.10;;;;;;;;;;5056180;28;20106;-92
2023/03/07 11:26:26;;;;;;;6.32;6.03;;;;;;;;;;5056127;28;20099;-94
2023/03/07 11:29:03;;;;;;;5.90;5.60;;;;;;;;;;5056259;28;20098;-93
2023/03/07 11:31:34;;;;;;;4.70;4.50;;;;;;;;;;5055968;28;20118;-93
2023/03/07 11:34:05;;;;;;;4.50;4.25;;;;;;;;;;5055960;28;20049;-93
2023/03/07 11:36:32;;;;;;;4.25;4.05;;;;;;;;;;5056066;28;20490;-95
2023/03/07 11:39:02;;;;;;;3.13;3.00;;;;;;;;;;5056454;28;20041;-92
2023/03/07 11:41:29;;;;;;;5.57;5.18;;;;;;;;;;5056080;28;20053;-93
2023/03/07 11:44:02;;;;;;;6.00;5.72;;;;;;;;;;5055715;28;20060;-93
2023/03/07 11:46:36;;;;;;;7.07;6.70;;;;;;;;;;5056068;28;20049;-92
2023/03/07 11:49:09;;;;;;;6.20;5.90;;;;;;;;;;5056145;28;20107;-93
2023/03/07 11:51:47;;;;;;;5.53;5.22;;;;;;;;;;5056124;28;20045;-93
2023/03/07 11:54:19;;;;;;;6.30;6.03;;;;;;;;;;5055858;28;20068;-91
2023/03/07 11:56:47;;;;;;;4.07;3.72;;;;;;;;;;5055472;28;20494;-92
2023/03/07 11:59:25;;;;;;;4.50;4.30;;;;;;;;;;5046460;28;20099;-93
2023/03/07 12:01:54;;;;;;;6.32;6.00;;;;;;;;;;5035524;28;20495;-92
2023/03/07 12:04:44;;;;;;;3.78;3.65;;;;;;;;;;5035980;28;20041;-91
2023/03/07 12:07:16;;;;;;;3.33;3.13;;;;;;;;;;5035720;28;20049;-93
2023/03/07 12:09:51;;;;;;;4.40;4.20;;;;;;;;;;5035659;28;20061;-91
2023/03/07 12:12:29;;;;;;;5.68;5.47;;;;;;;;;;5035505;28;20054;-93
2023/03/07 12:15:01;;;;;;;3.80;3.60;;;;;;;;;;5035240;28;20119;-91
2023/03/07 12:17:36;;;;;;;3.35;3.22;;;;;;;;;;5044606;28;20045;-92
2023/03/07 12:20:10;;;;;;;3.00;2.80;;;;;;;;;;5055353;28;20084;-93
2023/03/07 12:22:40;;;;;;;3.47;3.28;;;;;;;;;;5055250;28;20461;-91
2023/03/07 12:25:25;;;;;;;5.07;4.78;;;;;;;;;;5050358;28;20128;-92
2023/03/07 12:27:57;;;;;;;3.13;2.92;;;;;;;;;;5035027;28;20484;-93
2023/03/07 12:30:26;;;;;;;3.85;3.72;;;;;;;;;;5034838;28;20495;-92
2023/03/07 12:32:54;;;;;;;3.63;3.42;;;;;;;;;;5033986;28;20053;-91
2023/03/07 12:35:23;;;;;;;5.13;4.82;;;;;;;;;;5044365;28;20465;-91
2023/03/07 12:37:53;;;;;;;6.47;6.25;;;;;;;;;;5054786;28;20491;-91
2023/03/07 12:40:21;;;;;;;6.28;6.00;;;;;;;;;;5055094;28;20045;-92
2023/03/07 12:42:51;;;;;;;5.18;4.95;;;;;;;;;;5055493;28;20052;-91
2023/03/07 12:45:19;;;;;;;6.28;6.05;;;;;;;;;;5054976;28;20052;-93
2023/03/07 12:47:51;;;;;;;5.82;5.63;;;;;;;;;;5054930;28;20143;-93
2023/03/07 12:50:22;;;;;;;5.00;4.75;;;;;;;;;;5054778;28;20045;-92
2023/03/07 12:52:52;;;;;;;10.75;10.35;;;;;;;;;;5054608;28;20110;-92
2023/03/07 12:55:22;;;;;;;7.03;6.72;;;;;;;;;;5054428;28;20103;-93
2023/03/07 12:57:54;;;;;;;6.95;6.63;;;;;;;;;;5054494;28;20127;-91
2023/03/07 13:00:21;;;;;;;7.25;6.95;;;;;;;;;;5054284;28;20053;-92
2023/03/07 13:02:53;;;;;;;9.40;9.00;;;;;;;;;;5054625;28;20080;-93
2023/03/07 13:05:21;;;;;;;6.75;6.45;;;;;;;;;;5054677;28;20132;-91
2023/03/07 13:07:48;;;;;;;6.32;5.97;;;;;;;;;;5054613;28;20045;-90
2023/03/07 13:10:16;;;;;;;5.57;5.38;;;;;;;;;;5041232;28;20479;-91
2023/03/07 13:12:43;;;;;;;4.95;4.60;;;;;;;;;;5040094;28;20049;-92
2023/03/07 13:15:35;;;;;;;7.53;7.13;;;;;;;;;;5048404;28;20700;-90
2023/03/07 13:18:02;;;;;;;7.07;6.75;;;;;;;;;;5054227;28;20057;-90
2023/03/07 13:20:49;;;;;;;7.35;6.95;;;;;;;;;;5039601;28;20050;-91
2023/03/07 13:23:26;;;;;;;7.07;6.78;;;;;;;;;;5035040;28;20547;-92
2023/03/07 13:25:57;;;;;;;9.80;9.38;;;;;;;;;;5035628;28;20054;-91
2023/03/07 13:28:54;;;;;;;6.13;5.57;;;;;;;;;;5038672;28;20045;-91
2023/03/07 13:31:35;;;;;;;4.63;4.38;;;;;;;;;;5042551;28;20115;-89
2023/03/07 13:34:28;;;;;;;8.20;7.78;;;;;;;;;;5045678;28;20053;-90
2023/03/07 13:36:55;;;;;;;5.50;5.28;;;;;;;;;;4964580;28;20058;-90
2023/03/07 13:39:38;;;;;;;5.03;4.65;;;;;;;;;;4972941;28;20761;-91
2023/03/07 13:42:05;;;;;;;5.07;4.78;;;;;;;;;;4972754;28;20096;-92
2023/03/07 13:44:37;;;;;;;5.70;5.40;;;;;;;;;;4972816;28;20051;-91
2023/03/07 13:47:03;;;;;;;6.05;5.78;;;;;;;;;;4970251;28;20129;-90
2023/03/07 13:49:43;;;;;;;3.65;3.50;;;;;;;;;;4971237;28;20528;-91
2023/03/07 13:52:34;;;;;;;6.57;6.18;;;;;;;;;;4953173;29;20099;-91
2023/03/07 13:55:03;;;;;;;2.95;2.85;;;;;;;;;;4962057;28;20050;-91
2023/03/07 13:57:34;;;;;;;3.72;3.55;;;;;;;;;;4969595;28;20051;-91
2023/03/07 14:00:01;;;;;;;5.15;4.93;;;;;;;;;;4953965;28;20564;-91
2023/03/07 14:02:28;;;;;;;6.15;5.82;;;;;;;;;;4952870;29;20137;-89
2023/03/07 14:04:56;;;;;;;4.97;4.78;;;;;;;;;;4960815;28;20054;-90
2023/03/07 14:07:24;;;;;;;6.18;5.82;;;;;;;;;;4972378;28;20089;-92
2023/03/07 14:09:53;;;;;;;3.50;3.40;;;;;;;;;;4960465;28;20461;-91
2023/03/07 14:12:24;;;;;;;5.40;5.18;;;;;;;;;;4996447;28;20079;-91
2023/03/07 14:14:58;;;;;;;3.72;3.58;;;;;;;;;;5053208;28;20760;-92
2023/03/07 14:17:32;;;;;;;4.63;4.32;;;;;;;;;;5053447;28;20056;-91
2023/03/07 14:20:07;;;;;;;3.85;3.70;;;;;;;;;;5044539;28;21369;-90
2023/03/07 14:22:53;;;;;;;3.65;3.45;;;;;;;;;;5035722;28;20096;-89
2023/03/07 14:25:21;;;;;;;3.95;3.75;;;;;;;;;;5048390;28;20053;-90
2023/03/07 14:27:51;;;;;;;5.72;5.43;;;;;;;;;;5040688;28;20103;-91
2023/03/07 14:30:18;;;;;;;4.10;3.90;;;;;;;;;;5033307;28;20061;-91
2023/03/07 14:32:45;;;;;;;3.22;3.10;;;;;;;;;;5044475;28;20049;-91
2023/03/07 14:35:14;;;;;;;4.35;4.15;;;;;;;;;;5043755;28;20091;-91
2023/03/07 14:37:41;;;;;;;4.45;4.15;;;;;;;;;;5048750;28;20495;-91
2023/03/07 14:40:22;;;;;;;3.63;3.33;;;;;;;;;;5038770;28;20048;-91
2023/03/07 14:42:53;;;;;;;4.65;4.43;;;;;;;;;;5047477;28;20049;-90
2023/03/07 14:45:23;;;;;;;5.25;4.95;;;;;;;;;;5039399;28;20502;-92
2023/03/07 14:48:08;;;;;;;3.25;3.13;;;;;;;;;;5032564;28;20495;-90
2023/03/07 14:50:38;;;;;;;3.80;3.58;;;;;;;;;;5033132;28;20046;-91
2023/03/07 14:53:07;;;;;;;3.15;3.03;;;;;;;;;;5034309;28;20526;-91
2023/03/07 14:55:35;;;;;;;4.03;3.83;;;;;;;;;;5054498;28;20095;-91
2023/03/07 14:58:02;;;;;;;3.85;3.67;;;;;;;;;;5071296;28;20497;-91
2023/03/07 15:00:31;;;;;;;2.05;1.67;;;;;;;;;;5070120;28;20417;-91
2023/03/07 15:02:59;;;;;;;4.40;4.20;;;;;;;;;;5070266;28;20045;-91
2023/03/07 15:05:27;;;;;;;3.13;3.00;;;;;;;;;;5061987;28;20108;-92